createdAt,value
2023-10-13T00:01:51.431Z,8.23
2023-10-13T00:04:17.997Z,7.70
2023-10-13T00:06:45.795Z,8.25
2023-10-13T00:09:12.213Z,8.15
2023-10-13T00:11:42.542Z,8.35
2023-10-13T00:14:09.032Z,8.25
2023-10-13T00:16:35.559Z,8.10
2023-10-13T00:19:02.190Z,8.38
2023-10-13T00:21:28.684Z,8.35
2023-10-13T00:23:56.472Z,8.52
2023-10-13T00:26:24.655Z,8.93
2023-10-13T00:28:51.301Z,8.57
2023-10-13T00:31:17.758Z,8.55
2023-10-13T00:33:44.314Z,8.18
2023-10-13T00:36:10.745Z,8.38
2023-10-13T00:38:37.185Z,8.30
2023-10-13T00:41:04.964Z,8.20
2023-10-13T00:43:31.561Z,8.38
2023-10-13T00:46:00.764Z,8.57
2023-10-13T00:48:30.492Z,7.82
2023-10-13T00:50:58.243Z,7.43
2023-10-13T00:53:26.415Z,7.57
2023-10-13T00:55:53.118Z,7.78
2023-10-13T00:58:22.153Z,7.43
2023-10-13T01:00:49.582Z,7.45
2023-10-13T01:03:16.096Z,7.75
2023-10-13T01:05:43.231Z,7.90
2023-10-13T01:08:09.698Z,8.50
2023-10-13T01:10:36.147Z,7.57
2023-10-13T01:13:02.711Z,7.47
2023-10-13T01:15:30.516Z,7.57
2023-10-13T01:18:07.286Z,6.90
2023-10-13T01:20:33.763Z,7.80
2023-10-13T01:23:00.211Z,7.70
2023-10-13T01:25:28.023Z,7.07
2023-10-13T01:27:54.909Z,7.55
2023-10-13T01:30:21.848Z,7.60
2023-10-13T01:32:48.480Z,7.40
2023-10-13T01:35:15.208Z,7.00
2023-10-13T01:37:41.669Z,7.25
2023-10-13T01:40:08.991Z,6.78
2023-10-13T01:42:36.820Z,7.30
2023-10-13T01:45:03.411Z,7.10
2023-10-13T01:47:29.890Z,6.97
2023-10-13T01:49:56.355Z,6.78
2023-10-13T01:52:22.793Z,7.38
2023-10-13T01:54:49.694Z,6.43
2023-10-13T01:57:16.145Z,7.35
2023-10-13T01:59:45.388Z,6.38
2023-10-13T02:02:12.248Z,6.43
2023-10-13T02:04:39.054Z,6.47
2023-10-13T02:07:05.512Z,5.87
2023-10-13T02:09:32.025Z,5.93
2023-10-13T02:11:58.824Z,6.47
2023-10-13T02:14:25.283Z,5.93
2023-10-13T02:16:53.452Z,5.55
2023-10-13T02:19:20.072Z,5.57
2023-10-13T02:21:46.833Z,5.97
2023-10-13T02:24:13.341Z,5.63
2023-10-13T02:26:40.391Z,5.95
2023-10-13T02:29:07.001Z,5.55
2023-10-13T02:31:33.534Z,5.80
2023-10-13T02:34:01.328Z,6.00
2023-10-13T02:36:27.782Z,5.75
2023-10-13T02:38:54.224Z,6.32
2023-10-13T02:41:21.128Z,6.25
2023-10-13T02:43:47.651Z,6.33
2023-10-13T02:46:14.181Z,6.60
2023-10-13T02:48:40.644Z,5.90
2023-10-13T02:51:09.522Z,6.30
2023-10-13T02:53:35.981Z,6.80
2023-10-13T02:56:02.645Z,6.50
2023-10-13T02:58:29.141Z,6.68
2023-10-13T03:00:55.695Z,6.03
2023-10-13T03:03:22.221Z,6.82
2023-10-13T03:05:48.720Z,6.70
2023-10-13T03:08:16.489Z,6.20
2023-10-13T03:10:42.960Z,6.88
2023-10-13T03:13:09.467Z,6.78
2023-10-13T03:15:35.952Z,6.30
2023-10-13T03:18:02.557Z,6.35
2023-10-13T03:20:29.108Z,6.47
2023-10-13T03:22:55.658Z,6.45
2023-10-13T03:25:23.618Z,6.78
2023-10-13T03:27:50.209Z,5.72
2023-10-13T03:30:17.143Z,6.22
2023-10-13T03:32:43.790Z,6.27
2023-10-13T03:35:10.616Z,6.22
2023-10-13T03:37:37.084Z,6.13
2023-10-13T03:40:04.166Z,5.80
2023-10-13T03:42:32.489Z,5.78
2023-10-13T03:44:59.058Z,5.37
2023-10-13T03:47:25.542Z,5.57
2023-10-13T03:49:52.045Z,6.22
2023-10-13T03:52:18.547Z,5.53
2023-10-13T03:54:44.998Z,5.57
2023-10-13T03:57:11.430Z,5.63
2023-10-13T03:59:39.635Z,5.22
2023-10-13T04:02:06.231Z,5.00
2023-10-13T04:04:32.747Z,5.72
2023-10-13T04:06:59.321Z,5.30
2023-10-13T04:09:25.748Z,5.07
2023-10-13T04:11:52.299Z,5.13
2023-10-13T04:14:18.753Z,4.95
2023-10-13T04:16:46.620Z,5.25
2023-10-13T04:19:13.419Z,5.50
2023-10-13T04:21:39.906Z,5.60
2023-10-13T04:24:07.311Z,4.90
2023-10-13T04:26:36.286Z,5.10
2023-10-13T04:29:02.895Z,4.75
2023-10-13T04:31:29.344Z,5.70
2023-10-13T04:33:57.141Z,5.00
2023-10-13T04:36:24.000Z,5.40
2023-10-13T04:38:51.705Z,5.28
2023-10-13T04:41:18.141Z,4.80
2023-10-13T04:43:44.573Z,5.15
2023-10-13T04:46:11.201Z,5.30
2023-10-13T04:48:40.012Z,5.53
2023-10-13T04:51:09.575Z,5.30
2023-10-13T04:53:36.020Z,5.22
2023-10-13T04:56:02.505Z,5.72
2023-10-13T04:58:29.072Z,4.77
2023-10-13T05:00:59.749Z,5.47
2023-10-13T05:03:26.245Z,5.60
2023-10-13T05:05:52.676Z,5.43
2023-10-13T05:08:20.569Z,5.88
2023-10-13T05:10:47.078Z,4.80
2023-10-13T05:13:13.640Z,5.30
2023-10-13T05:15:48.936Z,5.15
2023-10-13T05:18:15.403Z,5.45
2023-10-13T05:20:41.882Z,5.30
2023-10-13T05:23:08.304Z,5.23
2023-10-13T05:25:37.565Z,5.07
2023-10-13T05:28:06.673Z,5.40
2023-10-13T05:30:33.891Z,6.10
2023-10-13T05:33:00.494Z,5.47
2023-10-13T05:35:26.981Z,5.63
2023-10-13T05:37:53.594Z,5.60
2023-10-13T05:40:20.064Z,5.35
2023-10-13T05:42:47.933Z,6.00
2023-10-13T05:45:14.531Z,6.38
2023-10-13T05:47:41.248Z,5.67
2023-10-13T05:50:08.424Z,5.88
2023-10-13T05:52:35.020Z,5.45
2023-10-13T05:55:01.489Z,6.10
2023-10-13T05:57:27.944Z,5.65
2023-10-13T05:59:55.738Z,5.13
2023-10-13T06:02:23.415Z,5.18
2023-10-13T06:04:50.629Z,5.55
2023-10-13T06:07:17.177Z,5.88
2023-10-13T06:09:43.622Z,5.25
2023-10-13T06:12:10.051Z,6.20
2023-10-13T06:14:36.539Z,5.60
2023-10-13T06:17:04.532Z,5.15
2023-10-13T06:19:31.085Z,4.93
2023-10-13T06:21:57.518Z,5.28
2023-10-13T06:24:24.314Z,5.30
2023-10-13T06:26:50.930Z,5.28
2023-10-13T06:29:17.362Z,5.15
2023-10-13T06:31:43.866Z,5.00
2023-10-13T06:34:11.766Z,5.68
2023-10-13T06:36:38.239Z,4.87
2023-10-13T06:39:04.731Z,5.20
2023-10-13T06:41:31.200Z,5.18
2023-10-13T06:43:57.664Z,4.97
2023-10-13T06:46:24.230Z,5.07
2023-10-13T06:48:50.978Z,4.73
2023-10-13T06:51:18.954Z,5.20
2023-10-13T06:53:46.069Z,4.68
2023-10-13T06:56:12.493Z,4.82
2023-10-13T06:58:38.970Z,5.22
2023-10-13T07:01:07.806Z,4.90
2023-10-13T07:03:34.355Z,5.07
2023-10-13T07:06:00.894Z,4.78
2023-10-13T07:08:28.757Z,4.65
2023-10-13T07:10:56.280Z,4.10
2023-10-13T07:13:22.865Z,4.70
2023-10-13T07:15:49.434Z,5.00
2023-10-13T07:18:16.550Z,4.40
2023-10-13T07:20:43.105Z,4.55
2023-10-13T07:23:09.646Z,4.55
2023-10-13T07:25:37.671Z,4.63
2023-10-13T07:28:05.277Z,4.70
2023-10-13T07:30:31.724Z,4.25
2023-10-13T07:32:58.598Z,4.40
2023-10-13T07:35:25.052Z,4.53
2023-10-13T07:37:51.918Z,4.17
2023-10-13T07:40:18.769Z,4.30
2023-10-13T07:42:46.574Z,4.65
2023-10-13T07:45:13.008Z,4.13
2023-10-13T07:47:39.482Z,4.95
2023-10-13T07:50:07.059Z,4.63
2023-10-13T07:52:35.211Z,4.60
2023-10-13T07:55:02.269Z,4.40
2023-10-13T07:57:28.737Z,4.65
2023-10-13T07:59:56.566Z,4.72
2023-10-13T08:02:23.104Z,5.00
2023-10-13T08:04:49.976Z,4.97
2023-10-13T08:07:16.479Z,4.32
2023-10-13T08:09:43.482Z,4.82
2023-10-13T08:12:10.185Z,4.60
2023-10-13T08:14:39.737Z,4.93
2023-10-13T08:17:08.578Z,4.55
2023-10-13T08:19:35.275Z,4.75
2023-10-13T08:22:03.593Z,4.45
2023-10-13T08:24:30.063Z,4.70
2023-10-13T08:26:57.129Z,4.70
2023-10-13T08:29:23.919Z,4.90
2023-10-13T08:31:52.022Z,4.50
2023-10-13T08:34:20.132Z,4.40
2023-10-13T08:36:46.761Z,4.55
2023-10-13T08:39:13.337Z,4.53
2023-10-13T08:41:40.610Z,4.13
2023-10-13T08:44:09.692Z,4.70
2023-10-13T08:46:36.495Z,4.97
2023-10-13T08:49:04.046Z,4.22
2023-10-13T08:51:34.800Z,4.60
2023-10-13T08:54:01.519Z,4.03
2023-10-13T08:56:27.989Z,4.70
2023-10-13T08:58:55.017Z,4.68
2023-10-13T09:01:23.844Z,4.35
2023-10-13T09:03:50.345Z,4.57
2023-10-13T09:06:16.924Z,4.28
2023-10-13T09:08:44.779Z,4.20
2023-10-13T09:11:11.612Z,4.30
2023-10-13T09:13:38.588Z,4.28
2023-10-13T09:16:10.427Z,4.50
2023-10-13T09:18:36.864Z,4.43
2023-10-13T09:21:03.317Z,4.25
2023-10-13T09:23:29.749Z,4.00
2023-10-13T09:26:06.699Z,4.28
2023-10-13T09:28:33.221Z,4.40
2023-10-13T09:30:59.693Z,3.97
2023-10-13T09:33:27.980Z,4.43
2023-10-13T09:35:54.758Z,4.43
2023-10-13T09:38:21.406Z,4.10
2023-10-13T09:40:48.031Z,4.20
2023-10-13T09:43:17.653Z,3.72
2023-10-13T09:45:46.825Z,3.97
2023-10-13T09:48:15.760Z,4.00
2023-10-13T09:50:44.850Z,4.32
2023-10-13T09:53:11.948Z,3.87
2023-10-13T09:55:44.258Z,4.50
2023-10-13T09:58:12.190Z,4.82
2023-10-13T10:00:44.560Z,4.00
2023-10-13T10:03:11.115Z,4.60
2023-10-13T10:05:37.692Z,3.87
2023-10-13T10:08:04.836Z,4.00
2023-10-13T10:10:48.670Z,4.10
2023-10-13T10:13:22.793Z,4.03
2023-10-13T10:15:55.393Z,4.30
2023-10-13T10:18:22.809Z,4.07
2023-10-13T10:20:50.330Z,4.22
2023-10-13T10:23:25.550Z,4.85
2023-10-13T10:25:52.121Z,4.20
2023-10-13T10:28:18.818Z,5.25
2023-10-13T10:30:45.670Z,4.57
2023-10-13T10:33:13.952Z,4.97
2023-10-13T10:35:41.415Z,4.80
2023-10-13T10:38:09.083Z,4.72
2023-10-13T10:40:35.934Z,4.40
2023-10-13T10:43:05.362Z,4.67
2023-10-13T10:45:38.038Z,5.00
2023-10-13T10:48:06.632Z,4.70
2023-10-13T10:50:34.391Z,4.72
2023-10-13T10:53:00.908Z,5.68
2023-10-13T10:55:27.446Z,5.10
2023-10-13T10:57:59.539Z,5.00
2023-10-13T11:00:26.410Z,4.13
2023-10-13T11:02:56.347Z,4.40
2023-10-13T11:05:23.058Z,4.85
2023-10-13T11:07:51.025Z,5.43
2023-10-13T11:10:17.996Z,5.25
2023-10-13T11:12:55.185Z,5.00
2023-10-13T11:15:21.754Z,5.22
2023-10-13T11:17:50.000Z,5.25
2023-10-13T11:20:18.780Z,4.90
2023-10-13T11:22:48.949Z,4.85
2023-10-13T11:25:24.339Z,5.05
2023-10-13T11:27:50.941Z,5.20
2023-10-13T11:30:18.095Z,4.97
2023-10-13T11:32:44.623Z,4.87
2023-10-13T11:35:11.757Z,4.95
2023-10-13T11:37:38.265Z,5.18
2023-10-13T11:40:05.721Z,5.43
2023-10-13T11:42:33.519Z,5.50
2023-10-13T11:44:59.979Z,5.40
2023-10-13T11:47:26.564Z,4.72
2023-10-13T11:49:53.163Z,5.90
2023-10-13T11:52:19.752Z,5.32
2023-10-13T11:54:46.203Z,5.07
2023-10-13T11:57:12.652Z,5.07
2023-10-13T11:59:40.411Z,5.15
2023-10-13T12:02:07.254Z,5.32
2023-10-13T12:04:33.968Z,5.25
2023-10-13T12:07:00.963Z,5.22
2023-10-13T12:09:27.396Z,5.17
2023-10-13T12:11:53.814Z,5.57
2023-10-13T12:14:20.446Z,5.43
2023-10-13T12:16:49.071Z,5.22
2023-10-13T12:19:16.883Z,5.68
2023-10-13T12:21:43.947Z,5.73
2023-10-13T12:24:10.479Z,5.47
2023-10-13T12:26:36.925Z,5.95
2023-10-13T12:29:03.475Z,5.30
2023-10-13T12:31:29.963Z,5.30
2023-10-13T12:33:57.808Z,5.30
2023-10-13T12:36:24.258Z,5.50
2023-10-13T12:38:50.730Z,5.55
2023-10-13T12:41:28.803Z,5.47
2023-10-13T12:44:01.472Z,5.50
2023-10-13T12:46:28.004Z,5.97
2023-10-13T12:48:54.540Z,6.10
2023-10-13T12:51:23.058Z,6.07
2023-10-13T12:53:50.611Z,5.63
2023-10-13T12:56:17.938Z,5.60
2023-10-13T12:58:45.077Z,6.07
2023-10-13T13:01:11.594Z,5.57
2023-10-13T13:03:38.150Z,5.68
2023-10-13T13:06:04.658Z,5.30
2023-10-13T13:08:32.416Z,5.47
2023-10-13T13:10:58.881Z,5.27
2023-10-13T13:13:25.394Z,5.82
2023-10-13T13:15:51.862Z,5.30
2023-10-13T13:18:18.334Z,5.70
2023-10-13T13:20:44.819Z,5.97
2023-10-13T13:23:11.275Z,5.93
2023-10-13T13:25:39.192Z,5.20
2023-10-13T13:28:06.072Z,5.28
2023-10-13T13:30:33.028Z,5.80
2023-10-13T13:32:59.617Z,6.22
2023-10-13T13:35:26.104Z,5.40
2023-10-13T13:37:52.819Z,5.72
2023-10-13T13:40:19.405Z,5.50
2023-10-13T13:42:47.236Z,5.65
2023-10-13T13:45:14.064Z,5.97
2023-10-13T13:47:40.632Z,5.93
2023-10-13T13:50:07.753Z,6.10
2023-10-13T13:52:34.247Z,5.95
2023-10-13T13:55:00.734Z,5.70
2023-10-13T13:57:27.174Z,6.20
2023-10-13T13:59:55.082Z,5.80
2023-10-13T14:02:21.707Z,5.40
2023-10-13T14:04:48.520Z,5.50
2023-10-13T14:07:15.015Z,6.00
2023-10-13T14:09:41.764Z,5.72
2023-10-13T14:12:08.223Z,5.43
2023-10-13T14:14:34.927Z,5.22
2023-10-13T14:17:02.973Z,5.57
2023-10-13T14:19:29.807Z,5.22
2023-10-13T14:21:56.911Z,5.88
2023-10-13T14:24:23.811Z,5.57
2023-10-13T14:26:50.292Z,5.30
2023-10-13T14:29:16.738Z,5.25
2023-10-13T14:31:43.385Z,5.32
2023-10-13T14:34:11.250Z,5.03
2023-10-13T14:36:37.738Z,5.57
2023-10-13T14:39:06.413Z,5.18
2023-10-13T14:41:32.855Z,5.60
2023-10-13T14:43:59.293Z,5.70
2023-10-13T14:46:25.805Z,5.28
2023-10-13T14:48:53.146Z,5.10
2023-10-13T14:51:21.343Z,5.13
2023-10-13T14:53:49.681Z,4.80
2023-10-13T14:56:18.157Z,4.85
2023-10-13T14:58:45.837Z,5.65
2023-10-13T15:01:13.183Z,4.80
2023-10-13T15:03:39.661Z,5.15
2023-10-13T15:06:06.160Z,4.85
2023-10-13T15:08:33.935Z,5.47
2023-10-13T15:11:09.159Z,4.93
2023-10-13T15:13:35.628Z,5.27
2023-10-13T15:16:02.258Z,5.05
2023-10-13T15:18:28.711Z,5.15
2023-10-13T15:20:55.196Z,4.78
2023-10-13T15:23:21.686Z,4.97
2023-10-13T15:25:49.500Z,4.60
2023-10-13T15:28:16.117Z,4.75
2023-10-13T15:30:42.581Z,4.43
2023-10-13T15:33:09.152Z,4.93
2023-10-13T15:35:39.200Z,5.63
2023-10-13T15:38:05.662Z,5.00
2023-10-13T15:40:32.172Z,4.38
2023-10-13T15:43:00.052Z,5.03
2023-10-13T15:45:26.538Z,5.60
2023-10-13T15:50:23.325Z,5.03
2023-10-13T15:52:49.961Z,4.55
2023-10-13T15:55:17.732Z,4.50
2023-10-13T15:57:44.923Z,4.32
2023-10-13T16:00:13.378Z,4.20
2023-10-13T16:02:39.971Z,4.53
2023-10-13T16:05:06.742Z,4.35
2023-10-13T16:07:33.266Z,4.60
2023-10-13T16:10:02.085Z,4.40
2023-10-13T16:12:29.169Z,4.50
2023-10-13T16:14:55.589Z,4.23
2023-10-13T16:17:23.617Z,4.57
2023-10-13T16:19:52.818Z,4.57
2023-10-13T16:22:19.419Z,4.75
2023-10-13T16:24:45.968Z,4.60
2023-10-13T16:27:12.413Z,4.83
2023-10-13T16:29:38.849Z,4.22
2023-10-13T16:32:05.724Z,4.75
2023-10-13T16:34:33.596Z,4.43
2023-10-13T16:37:00.057Z,4.70
2023-10-13T16:39:26.673Z,4.57
2023-10-13T16:41:53.346Z,4.43
2023-10-13T16:44:23.398Z,4.88
2023-10-13T16:46:49.983Z,4.90
2023-10-13T16:49:16.697Z,5.55
2023-10-13T16:51:44.579Z,4.37
2023-10-13T16:54:11.008Z,5.28
2023-10-13T16:56:37.593Z,4.90
2023-10-13T16:59:04.064Z,5.03
2023-10-13T17:01:30.567Z,4.75
2023-10-13T17:03:57.138Z,4.90
2023-10-13T17:06:23.790Z,4.70
2023-10-13T17:08:51.550Z,4.60
2023-10-13T17:11:19.340Z,5.10
2023-10-13T17:13:47.648Z,4.80
2023-10-13T17:16:15.114Z,4.83
2023-10-13T17:18:42.002Z,4.80
2023-10-13T17:21:15.705Z,4.45
2023-10-13T17:23:42.504Z,4.82
2023-10-13T17:26:10.332Z,5.05
2023-10-13T17:28:36.878Z,4.80
2023-10-13T17:31:03.396Z,4.45
2023-10-13T17:33:30.036Z,4.15
2023-10-13T17:35:56.360Z,4.57
2023-10-13T17:38:22.825Z,4.20
2023-10-13T17:40:49.357Z,4.43
2023-10-13T17:43:17.130Z,4.32
2023-10-13T17:45:43.706Z,4.10
2023-10-13T17:48:10.822Z,4.60
2023-10-13T17:50:37.271Z,4.40
2023-10-13T17:53:03.992Z,4.10
2023-10-13T17:55:30.472Z,4.15
2023-10-13T17:57:57.079Z,4.75
2023-10-13T18:00:24.982Z,4.05
2023-10-13T18:02:51.705Z,4.32
2023-10-13T18:05:18.254Z,4.27
2023-10-13T18:07:45.374Z,4.65
2023-10-13T18:10:12.194Z,4.60
2023-10-13T18:12:38.873Z,4.55
2023-10-13T18:15:06.631Z,4.65
2023-10-13T18:17:34.351Z,4.60
2023-10-13T18:20:01.291Z,4.00
2023-10-13T18:22:27.753Z,4.10
2023-10-13T18:24:54.181Z,3.97
2023-10-13T18:27:20.627Z,3.92
2023-10-13T18:29:50.065Z,3.90
2023-10-13T18:32:16.497Z,4.20
2023-10-13T18:34:46.873Z,4.63
2023-10-13T18:37:13.310Z,4.22
2023-10-13T18:39:39.748Z,4.05
2023-10-13T18:42:06.178Z,3.97
2023-10-13T18:44:32.633Z,3.90
2023-10-13T18:46:59.119Z,3.88
2023-10-13T18:49:25.884Z,4.10
2023-10-13T18:51:54.117Z,4.32
2023-10-13T18:54:20.718Z,4.50
2023-10-13T18:56:47.152Z,4.25
2023-10-13T18:59:13.685Z,4.40
2023-10-13T19:01:40.141Z,3.90
2023-10-13T19:04:07.114Z,4.15
2023-10-13T19:06:35.115Z,4.10
2023-10-13T19:09:03.216Z,4.30
2023-10-13T19:11:29.665Z,4.00
2023-10-13T19:13:56.114Z,4.22
2023-10-13T19:16:22.781Z,4.28
2023-10-13T19:18:49.325Z,4.20
2023-10-13T19:21:17.163Z,3.80
2023-10-13T19:23:44.555Z,3.30
2023-10-13T19:26:13.624Z,4.53
2023-10-13T19:28:40.180Z,3.50
2023-10-13T19:31:06.981Z,4.10
2023-10-13T19:33:33.520Z,3.70
2023-10-13T19:35:59.995Z,3.92
2023-10-13T19:38:26.934Z,3.45
2023-10-13T19:40:53.399Z,3.92
2023-10-13T19:43:21.171Z,3.83
2023-10-13T19:45:47.667Z,3.53
2023-10-13T19:48:14.211Z,3.50
2023-10-13T19:50:41.959Z,3.78
2023-10-13T19:53:09.884Z,3.60
2023-10-13T19:55:39.927Z,3.40
2023-10-13T19:58:07.089Z,3.50
2023-10-13T20:00:35.133Z,3.45
2023-10-13T20:03:01.689Z,3.25
2023-10-13T20:05:28.395Z,3.10
2023-10-13T20:07:54.880Z,3.20
2023-10-13T20:10:21.626Z,3.35
2023-10-13T20:12:48.224Z,3.00
2023-10-13T20:15:15.555Z,2.80
2023-10-13T20:17:44.316Z,3.00
2023-10-13T20:20:12.178Z,3.00
2023-10-13T20:22:38.925Z,3.35
2023-10-13T20:25:06.127Z,3.13
2023-10-13T20:27:32.683Z,3.28
2023-10-13T20:29:59.196Z,3.05
2023-10-13T20:32:25.672Z,3.17
2023-10-13T20:34:53.506Z,3.22
2023-10-13T20:37:19.921Z,2.97
2023-10-13T20:39:46.686Z,3.13
2023-10-13T20:42:13.768Z,2.72
2023-10-13T20:44:40.190Z,2.90
2023-10-13T20:47:06.771Z,3.63
2023-10-13T20:49:33.603Z,3.28
2023-10-13T20:52:01.400Z,3.10
2023-10-13T20:56:54.250Z,2.97
2023-10-13T20:59:20.911Z,3.30
2023-10-13T21:01:47.697Z,2.78
2023-10-13T21:04:14.516Z,3.15
2023-10-13T21:06:41.324Z,3.30
2023-10-13T21:09:09.085Z,3.30
2023-10-13T21:11:36.077Z,3.35
2023-10-13T21:14:02.524Z,3.75
2023-10-13T21:16:28.982Z,3.80
2023-10-13T21:18:55.494Z,3.38
2023-10-13T21:21:22.026Z,3.60
2023-10-13T21:23:48.634Z,3.42
2023-10-13T21:26:20.004Z,3.22
2023-10-13T21:28:47.196Z,3.58
2023-10-13T21:31:13.753Z,3.25
2023-10-13T21:33:40.250Z,3.70
2023-10-13T21:36:07.831Z,3.15
2023-10-13T21:38:34.247Z,3.38
2023-10-13T21:41:04.644Z,3.90
2023-10-13T21:43:32.428Z,3.55
2023-10-13T21:46:05.919Z,3.80
2023-10-13T21:48:32.440Z,3.40
2023-10-13T21:50:58.902Z,3.30
2023-10-13T21:53:25.316Z,3.60
2023-10-13T21:55:51.766Z,3.38
2023-10-13T21:58:18.314Z,3.57
2023-10-13T22:00:46.212Z,3.60
2023-10-13T22:03:12.753Z,4.05
2023-10-13T22:05:39.608Z,3.75
2023-10-13T22:08:06.804Z,3.78
2023-10-13T22:10:33.320Z,3.70
2023-10-13T22:12:59.796Z,3.67
2023-10-13T22:15:26.298Z,4.00
2023-10-13T22:17:54.122Z,4.43
2023-10-13T22:20:21.155Z,3.65
2023-10-13T22:22:47.582Z,3.70
2023-10-13T22:25:14.053Z,3.97
2023-10-13T22:27:40.736Z,4.03
2023-10-13T22:30:08.944Z,3.90
2023-10-13T22:32:35.404Z,4.43
2023-10-13T22:35:03.416Z,4.63
2023-10-13T22:37:29.914Z,4.35
2023-10-13T22:39:56.473Z,4.10
2023-10-13T22:42:23.100Z,4.13
2023-10-13T22:44:49.577Z,4.55
2023-10-13T22:47:16.011Z,4.67
2023-10-13T22:49:42.454Z,4.07
2023-10-13T22:52:10.294Z,4.50
2023-10-13T22:54:37.016Z,4.20
2023-10-13T22:57:03.795Z,4.63
2023-10-13T22:59:30.233Z,4.40
2023-10-13T23:01:56.732Z,4.55
2023-10-13T23:04:23.400Z,4.70
2023-10-13T23:06:49.971Z,4.50
2023-10-13T23:09:18.003Z,4.28
2023-10-13T23:11:44.421Z,5.27
2023-10-13T23:14:10.955Z,4.53
2023-10-13T23:16:37.411Z,4.70
2023-10-13T23:19:03.973Z,4.80
2023-10-13T23:21:30.524Z,4.65
2023-10-13T23:23:57.376Z,4.40
2023-10-13T23:26:26.026Z,4.93
2023-10-13T23:28:52.846Z,4.95
2023-10-13T23:31:19.686Z,4.88
2023-10-13T23:33:46.402Z,4.70
2023-10-13T23:36:13.377Z,4.80
2023-10-13T23:38:40.146Z,4.57
2023-10-13T23:41:06.782Z,5.07
2023-10-13T23:43:34.538Z,4.55
2023-10-13T23:46:00.999Z,4.40
2023-10-13T23:48:27.814Z,4.63
2023-10-13T23:50:55.564Z,4.40
2023-10-13T23:53:21.971Z,4.47
2023-10-13T23:55:48.770Z,4.93
2023-10-13T23:58:15.423Z,4.57
